Time;durP1;ratioP1;P1;durP2;ratioP2;P2;SDS_P1;SDS_P2;PMS_P1;PMS_P2;Temp;Humidity;BMP_temperature;BMP_pressure;BME280_temperature;BME280_humidity;BME280_pressure;Samples;Min_cycle;Max_cycle;Signal;HPM_P1;HPM_P2
2023/12/07 00:01:12;;;;;;;8.17;5.30;;;;;;;2.46;100.00;98478.84;5061027;28;20243;-78
2023/12/07 00:03:38;;;;;;;9.20;5.20;;;;;;;2.41;100.00;98475.56;5061200;28;20318;-79
2023/12/07 00:06:07;;;;;;;8.93;5.57;;;;;;;2.44;100.00;98482.44;5060865;28;20212;-79
2023/12/07 00:08:33;;;;;;;7.77;5.77;;;;;;;2.44;100.00;98482.44;5061054;28;20214;-79
2023/12/07 00:11:00;;;;;;;7.83;5.60;;;;;;;2.45;100.00;98491.97;5060649;28;20200;-79
2023/12/07 00:13:26;;;;;;;8.60;6.07;;;;;;;2.48;100.00;98487.50;5061657;28;20214;-79
2023/12/07 00:15:53;;;;;;;9.77;5.53;;;;;;;2.53;100.00;98476.94;5060336;28;20210;-79
2023/12/07 00:18:19;;;;;;;7.87;5.80;;;;;;;2.53;100.00;98485.63;5061171;28;20208;-78
2023/12/07 00:20:46;;;;;;;9.48;6.60;;;;;;;2.58;100.00;98481.09;5068739;28;20452;-79
2023/12/07 00:23:13;;;;;;;7.70;5.60;;;;;;;2.59;100.00;98472.38;5065200;28;20211;-79
2023/12/07 00:25:40;;;;;;;8.33;5.13;;;;;;;2.59;100.00;98481.94;5065966;28;20225;-79
2023/12/07 00:28:07;;;;;;;7.20;5.00;;;;;;;2.56;100.00;98482.91;5065789;28;20618;-79
2023/12/07 00:30:33;;;;;;;6.73;4.87;;;;;;;2.59;100.00;98481.94;5065291;28;20208;-79
2023/12/07 00:33:00;;;;;;;7.10;4.73;;;;;;;2.68;100.00;98487.72;5066099;28;20267;-79
2023/12/07 00:35:28;;;;;;;7.93;5.53;;;;;;;2.72;100.00;98488.47;5063359;28;20219;-78
2023/12/07 00:37:55;;;;;;;7.20;5.37;;;;;;;2.71;100.00;98484.16;5066119;28;20262;-79
2023/12/07 00:40:23;;;;;;;8.87;5.67;;;;;;;2.70;100.00;98491.13;5081638;28;20289;-79
2023/12/07 00:42:50;;;;;;;7.97;5.17;;;;;;;2.71;100.00;98498.06;5085203;28;20227;-79
2023/12/07 00:45:17;;;;;;;6.37;4.90;;;;;;;2.69;100.00;98493.81;5084197;28;20213;-79
2023/12/07 00:47:43;;;;;;;7.17;4.37;;;;;;;2.72;100.00;98494.56;5084936;28;20209;-78
2023/12/07 00:50:13;;;;;;;8.13;5.27;;;;;;;2.74;100.00;98495.34;5085008;28;20209;-78
2023/12/07 00:52:39;;;;;;;6.83;4.73;;;;;;;2.75;100.00;98494.44;5084781;28;20276;-79
2023/12/07 00:55:07;;;;;;;6.97;4.87;;;;;;;2.74;100.00;98497.09;5083883;28;20208;-79
2023/12/07 00:57:34;;;;;;;8.20;5.00;;;;;;;2.73;100.00;98495.41;5084997;28;20211;-79
2023/12/07 01:00:01;;;;;;;6.40;4.93;;;;;;;2.74;100.00;98497.97;5084082;28;20300;-79
2023/12/07 01:02:27;;;;;;;6.33;4.80;;;;;;;2.79;100.00;98493.44;5084406;28;20611;-79
2023/12/07 01:04:54;;;;;;;6.87;4.87;;;;;;;2.87;100.00;98493.22;5084440;28;20346;-79
2023/12/07 01:07:21;;;;;;;7.27;4.70;;;;;;;2.88;100.00;98500.97;5081556;28;20218;-79
2023/12/07 01:09:47;;;;;;;8.73;5.27;;;;;;;2.86;100.00;98500.16;5074100;28;20215;-79
2023/12/07 01:12:14;;;;;;;6.83;4.80;;;;;;;2.83;100.00;98499.41;5083568;28;20240;-79
2023/12/07 01:14:42;;;;;;;7.80;4.97;;;;;;;2.87;100.00;98509.69;5081478;28;20211;-79
2023/12/07 01:17:08;;;;;;;6.87;4.90;;;;;;;2.91;100.00;98511.31;5075175;28;20251;-79
2023/12/07 01:19:35;;;;;;;5.83;4.03;;;;;;;2.93;100.00;98514.72;5066727;28;20212;-79
2023/12/07 01:22:01;;;;;;;7.63;5.00;;;;;;;2.96;100.00;98517.25;5065784;28;20233;-79
2023/12/07 01:24:29;;;;;;;8.37;4.87;;;;;;;2.94;100.00;98515.59;5065499;28;20228;-79
2023/12/07 01:26:55;;;;;;;7.43;4.97;;;;;;;2.98;100.00;98522.41;5063701;28;20307;-79
2023/12/07 01:29:22;;;;;;;7.93;5.00;;;;;;;2.97;100.00;98526.78;5063959;28;20204;-79
2023/12/07 01:31:49;;;;;;;8.17;4.97;;;;;;;2.98;100.00;98525.88;5065882;28;20233;-79
2023/12/07 01:34:18;;;;;;;7.40;5.23;;;;;;;2.97;100.00;98524.16;5064633;28;20218;-79
2023/12/07 01:36:45;;;;;;;8.87;5.83;;;;;;;2.98;100.00;98528.47;5064253;28;20205;-79
2023/12/07 01:39:12;;;;;;;8.70;5.03;;;;;;;2.98;100.00;98523.25;5064739;28;20216;-79
2023/12/07 01:41:39;;;;;;;8.03;4.80;;;;;;;2.91;100.00;98532.19;5065106;28;20233;-79
2023/12/07 01:44:06;;;;;;;7.00;5.10;;;;;;;2.92;100.00;98533.91;5064127;28;20314;-79
2023/12/07 01:46:33;;;;;;;9.80;5.37;;;;;;;2.86;100.00;98534.09;5065228;28;20680;-79
2023/12/07 01:49:01;;;;;;;8.83;4.93;;;;;;;2.83;100.00;98539.44;5064617;28;20204;-79
2023/12/07 01:51:28;;;;;;;6.80;5.10;;;;;;;2.88;100.00;98541.91;5064848;28;20220;-79
2023/12/07 01:53:55;;;;;;;8.57;5.47;;;;;;;2.83;100.00;98538.56;5064853;28;20235;-79
2023/12/07 01:56:22;;;;;;;9.33;5.80;;;;;;;2.78;100.00;98541.34;5064821;28;20219;-79
2023/12/07 01:58:49;;;;;;;9.30;4.93;;;;;;;2.70;100.00;98538.09;5064482;28;20294;-79
2023/12/07 02:01:16;;;;;;;10.13;5.77;;;;;;;2.67;100.00;98546.03;5064984;28;20245;-79
2023/12/07 02:03:42;;;;;;;12.37;5.70;;;;;;;2.63;100.00;98541.81;5064644;28;20212;-79
2023/12/07 02:06:10;;;;;;;7.60;4.93;;;;;;;2.61;100.00;98554.06;5064026;28;20591;-79
2023/12/07 02:08:41;;;;;;;10.23;5.83;;;;;;;2.60;100.00;98551.50;5064064;28;20203;-79
2023/12/07 02:11:08;;;;;;;7.83;5.20;;;;;;;2.56;100.00;98548.13;5064568;28;20226;-79
2023/12/07 02:13:35;;;;;;;7.30;4.87;;;;;;;2.55;100.00;98559.47;5064739;28;20365;-79
2023/12/07 02:16:04;;;;;;;7.77;4.97;;;;;;;2.51;100.00;98557.84;5064700;28;20205;-79
2023/12/07 02:18:40;;;;;;;6.73;5.53;;;;;;;2.51;100.00;98555.22;5064058;28;20208;-79
2023/12/07 02:21:14;;;;;;;8.27;5.50;;;;;;;2.49;100.00;98553.56;5064382;28;20228;-79
2023/12/07 02:23:42;;;;;;;8.77;5.93;;;;;;;2.44;100.00;98556.31;5064382;28;20266;-79
2023/12/07 02:26:11;;;;;;;7.10;5.47;;;;;;;2.35;100.00;98548.78;5064603;28;20204;-79
2023/12/07 02:28:39;;;;;;;8.83;5.97;;;;;;;2.27;100.00;98550.75;5065049;28;20204;-79
2023/12/07 02:31:05;;;;;;;10.43;5.17;;;;;;;2.22;100.00;98547.44;5065172;28;20223;-79
2023/12/07 02:33:32;;;;;;;8.83;5.17;;;;;;;2.13;100.00;98545.09;5065673;28;20203;-79
2023/12/07 02:35:59;;;;;;;7.50;5.07;;;;;;;2.12;100.00;98548.63;5065336;28;20208;-79
2023/12/07 02:38:27;;;;;;;8.37;5.17;;;;;;;2.10;100.00;98547.81;5063946;28;20236;-78
2023/12/07 02:40:55;;;;;;;7.33;5.40;;;;;;;2.11;100.00;98546.91;5063342;28;20216;-81
2023/12/07 02:43:22;;;;;;;9.07;5.80;;;;;;;2.13;100.00;98552.06;5062608;28;20230;-77
2023/12/07 02:45:50;;;;;;;9.10;5.43;;;;;;;2.17;100.00;98557.16;5063822;28;20214;-78
2023/12/07 02:48:17;;;;;;;8.17;5.90;;;;;;;2.12;100.00;98558.16;5065809;28;20215;-79
2023/12/07 02:50:43;;;;;;;8.27;5.33;;;;;;;2.12;100.00;98553.81;5065694;28;20215;-78
2023/12/07 02:53:10;;;;;;;8.23;5.57;;;;;;;2.13;100.00;98558.13;5065567;28;20224;-78
2023/12/07 02:55:36;;;;;;;8.63;5.20;;;;;;;2.07;100.00;98550.50;5065636;28;20689;-79
2023/12/07 02:58:03;;;;;;;9.37;5.37;;;;;;;2.02;100.00;98547.16;5066508;28;20212;-79
2023/12/07 03:00:30;;;;;;;7.67;5.47;;;;;;;1.95;100.00;98556.06;5065576;28;20208;-78
2023/12/07 03:02:58;;;;;;;7.47;5.00;;;;;;;1.89;100.00;98558.84;5062859;28;20265;-81
2023/12/07 03:05:24;;;;;;;9.27;5.73;;;;;;;1.84;100.00;98563.31;5062726;28;20211;-78
2023/12/07 03:07:50;;;;;;;8.00;5.40;;;;;;;1.74;100.00;98561.00;5062352;28;20746;-79
2023/12/07 03:10:17;;;;;;;7.60;5.17;;;;;;;1.66;100.00;98560.38;5062520;28;20204;-78
2023/12/07 03:12:44;;;;;;;7.97;5.40;;;;;;;1.54;100.00;98558.94;5062345;28;20247;-81
2023/12/07 03:15:10;;;;;;;10.07;6.03;;;;;;;1.47;100.00;98570.41;5061845;28;20218;-78
2023/12/07 03:17:37;;;;;;;10.07;6.33;;;;;;;1.36;100.00;98564.63;5062752;28;20216;-81
2023/12/07 03:20:07;;;;;;;10.83;6.37;;;;;;;1.28;100.00;98566.59;5062747;28;20208;-81
2023/12/07 03:22:34;;;;;;;8.87;6.03;;;;;;;1.18;100.00;98565.09;5055159;28;20234;-80
2023/12/07 03:25:00;;;;;;;10.07;6.33;;;;;;;1.12;100.00;98562.66;5062121;28;20211;-81
2023/12/07 03:27:28;;;;;;;12.17;6.67;;;;;;;0.99;100.00;98571.66;5063947;28;20211;-80
2023/12/07 03:29:54;;;;;;;10.60;6.23;;;;;;;0.88;100.00;98565.91;5063335;28;20238;-79
2023/12/07 03:32:21;;;;;;;9.83;6.40;;;;;;;0.83;100.00;98566.88;5063877;28;20231;-80
2023/12/07 03:34:47;;;;;;;9.57;6.77;;;;;;;0.70;100.00;98566.34;5060269;28;20577;-80
2023/12/07 03:37:15;;;;;;;9.97;6.47;;;;;;;0.60;100.00;98572.63;5060260;28;20234;-80
2023/12/07 03:39:41;;;;;;;12.00;6.63;;;;;;;0.57;100.00;98566.63;5060807;28;20260;-79
2023/12/07 03:42:08;;;;;;;9.13;6.30;;;;;;;0.52;100.00;98569.34;5062954;28;20239;-79
2023/12/07 03:44:35;;;;;;;10.83;7.13;;;;;;;0.41;100.00;98571.34;5062435;28;20214;-80
2023/12/07 03:47:01;;;;;;;11.23;7.17;;;;;;;0.38;100.00;98579.19;5063623;28;20208;-80
2023/12/07 03:49:28;;;;;;;11.80;7.57;;;;;;;0.37;100.00;98577.47;5063151;28;20208;-79
2023/12/07 03:51:55;;;;;;;13.50;7.23;;;;;;;0.44;100.00;98584.25;5062592;28;20224;-80
2023/12/07 03:54:22;;;;;;;12.13;7.33;;;;;;;0.51;100.00;98580.63;5064560;28;20215;-80
2023/12/07 03:56:50;;;;;;;11.63;8.13;;;;;;;0.58;100.00;98579.63;5066342;28;20218;-80
2023/12/07 03:59:16;;;;;;;11.83;7.63;;;;;;;0.61;100.00;98578.69;5066045;28;20216;-79
2023/12/07 04:01:43;;;;;;;11.93;7.90;;;;;;;0.65;100.00;98583.78;5066070;28;20231;-80
2023/12/07 04:04:09;;;;;;;15.67;8.40;;;;;;;0.71;100.00;98582.78;5065065;28;20333;-80
2023/12/07 04:06:36;;;;;;;12.60;7.57;;;;;;;0.77;100.00;98583.50;5066517;28;20209;-80
2023/12/07 04:09:04;;;;;;;11.43;7.50;;;;;;;0.78;100.00;98590.41;5067236;28;20204;-80
2023/12/07 04:11:31;;;;;;;11.03;7.70;;;;;;;0.77;100.00;98598.25;5065785;28;20263;-80
2023/12/07 04:13:58;;;;;;;11.23;7.53;;;;;;;0.70;100.00;98589.75;5065487;28;20212;-80
2023/12/07 04:16:25;;;;;;;12.87;7.33;;;;;;;0.57;100.00;98590.88;5065979;28;20620;-80
2023/12/07 04:18:52;;;;;;;11.40;7.20;;;;;;;0.49;100.00;98587.59;5066224;28;20216;-79
2023/12/07 04:21:18;;;;;;;12.73;7.67;;;;;;;0.39;100.00;98591.28;5066499;28;20228;-80
2023/12/07 04:23:45;;;;;;;11.30;7.67;;;;;;;0.33;100.00;98601.81;5066519;28;20215;-80
2023/12/07 04:26:11;;;;;;;12.50;7.60;;;;;;;0.19;100.00;98601.25;5065290;28;20208;-80
2023/12/07 04:28:39;;;;;;;14.17;8.37;;;;;;;0.13;100.00;98597.97;5059669;28;20223;-80
2023/12/07 04:31:06;;;;;;;10.03;7.37;;;;;;;0.10;100.00;98593.69;5060318;28;20234;-80
2023/12/07 04:33:32;;;;;;;13.83;7.30;;;;;;;0.04;100.00;98599.00;5063903;28;20759;-80
2023/12/07 04:35:58;;;;;;;14.50;7.73;;;;;;;0.03;100.00;98602.50;5063063;28;20586;-80
2023/12/07 04:38:25;;;;;;;13.47;8.40;;;;;;;0.00;100.00;98601.69;5063146;28;20220;-79
2023/12/07 04:40:51;;;;;;;12.57;8.17;;;;;;;-0.02;100.00;98601.72;5062298;28;20222;-80
2023/12/07 04:43:18;;;;;;;11.00;7.13;;;;;;;-0.04;100.00;98602.63;5059715;28;20671;-80
2023/12/07 04:45:46;;;;;;;12.30;7.43;;;;;;;-0.10;100.00;98606.19;5064523;28;20663;-80
2023/12/07 04:48:12;;;;;;;10.03;6.57;;;;;;;-0.12;100.00;98602.78;5061367;28;20211;-80
2023/12/07 04:50:39;;;;;;;11.27;7.17;;;;;;;-0.19;100.00;98609.88;5065321;28;20212;-78
2023/12/07 04:53:06;;;;;;;12.63;7.93;;;;;;;-0.23;100.00;98606.47;5064982;28;20211;-81
2023/12/07 04:55:32;;;;;;;12.27;6.83;;;;;;;-0.27;100.00;98602.22;5059828;28;20219;-80
2023/12/07 04:57:59;;;;;;;13.10;7.67;;;;;;;-0.22;100.00;98609.91;5058258;28;20584;-80
2023/12/07 05:00:25;;;;;;;12.53;7.53;;;;;;;-0.25;100.00;98613.41;5058458;28;20212;-80
2023/12/07 05:02:53;;;;;;;13.50;7.97;;;;;;;-0.25;100.00;98604.78;5062334;28;20232;-80
2023/12/07 05:05:20;;;;;;;12.50;7.13;;;;;;;-0.30;100.00;98612.69;5063078;28;20227;-80
2023/12/07 05:07:46;;;;;;;12.13;7.77;;;;;;;-0.29;100.00;98603.13;5062757;28;20208;-80
2023/12/07 05:10:13;;;;;;;10.60;6.73;;;;;;;-0.34;100.00;98597.16;5065257;28;20216;-79
2023/12/07 05:12:40;;;;;;;10.87;7.43;;;;;;;-0.36;100.00;98596.34;5064939;28;20223;-78
2023/12/07 05:15:08;;;;;;;12.53;7.03;;;;;;;-0.43;100.00;98599.94;5064857;28;20208;-79
2023/12/07 05:17:34;;;;;;;14.97;8.43;;;;;;;-0.41;100.00;98604.22;5065228;28;20262;-81
2023/12/07 05:20:04;;;;;;;13.63;8.17;;;;;;;-0.38;100.00;98606.75;5064772;28;20238;-78
2023/12/07 05:22:31;;;;;;;13.40;7.63;;;;;;;-0.45;100.00;98606.91;5065429;28;20326;-80
2023/12/07 05:24:57;;;;;;;12.43;7.80;;;;;;;-0.49;100.00;98608.69;5064458;28;20210;-81
2023/12/07 05:27:24;;;;;;;13.77;7.83;;;;;;;-0.54;100.00;98612.25;5064980;28;20221;-78
2023/12/07 05:29:50;;;;;;;12.20;7.13;;;;;;;-0.52;100.00;98610.47;5065102;28;20218;-80
2023/12/07 05:32:17;;;;;;;10.87;6.70;;;;;;;-0.59;100.00;98614.94;5062382;28;20576;-80
2023/12/07 05:34:44;;;;;;;13.27;7.40;;;;;;;-0.56;100.00;98624.41;5059824;28;20204;-81
2023/12/07 05:37:11;;;;;;;15.87;9.17;;;;;;;-0.57;100.00;98617.53;5063030;28;20226;-80
2023/12/07 05:39:38;;;;;;;15.03;8.07;;;;;;;-0.54;100.00;98627.84;5065007;28;20212;-80
2023/12/07 05:42:05;;;;;;;12.80;7.53;;;;;;;-0.62;100.00;98614.16;5064272;28;20677;-80
2023/12/07 05:44:32;;;;;;;16.07;8.27;;;;;;;-0.59;100.00;98624.47;5063927;28;20208;-80
2023/12/07 05:46:58;;;;;;;14.00;7.30;;;;;;;-0.54;100.00;98617.44;5064381;28;20207;-80
2023/12/07 05:49:25;;;;;;;14.87;7.33;;;;;;;-0.57;100.00;98618.38;5064290;28;20593;-80
2023/12/07 05:51:52;;;;;;;12.87;7.33;;;;;;;-0.62;100.00;98614.16;5064060;28;20231;-80
2023/12/07 05:54:22;;;;;;;12.70;8.10;;;;;;;-0.65;100.00;98611.59;5063776;28;20220;-80
2023/12/07 05:56:48;;;;;;;12.27;7.20;;;;;;;-0.72;100.00;98607.38;5065592;28;20208;-79
2023/12/07 05:59:15;;;;;;;12.43;8.00;;;;;;;-0.77;100.00;98609.19;5064016;28;20212;-79
2023/12/07 06:01:41;;;;;;;11.03;7.03;;;;;;;-0.83;100.00;98609.31;5064115;28;20314;-80
2023/12/07 06:04:09;;;;;;;13.10;7.20;;;;;;;-0.85;100.00;98605.88;5064389;28;20232;-79
2023/12/07 06:06:36;;;;;;;11.10;7.10;;;;;;;-0.88;100.00;98606.78;5064032;28;20216;-80
2023/12/07 06:09:03;;;;;;;12.60;8.17;;;;;;;-0.83;100.00;98607.59;5064026;28;20222;-79
2023/12/07 06:11:31;;;;;;;15.57;7.53;;;;;;;-0.78;100.00;98612.69;5064719;28;20322;-80
2023/12/07 06:13:58;;;;;;;14.77;7.30;;;;;;;-0.75;100.00;98618.69;5064057;28;20238;-80
2023/12/07 06:16:26;;;;;;;15.73;8.23;;;;;;;-0.73;100.00;98616.06;5063589;28;20208;-80
2023/12/07 06:18:52;;;;;;;14.37;8.00;;;;;;;-0.72;100.00;98623.84;5064024;28;20210;-80
2023/12/07 06:21:20;;;;;;;12.97;7.93;;;;;;;-0.74;100.00;98615.19;5063791;28;20235;-80
2023/12/07 06:23:47;;;;;;;14.37;8.87;;;;;;;-0.75;100.00;98610.06;5064027;28;20590;-79
2023/12/07 06:26:13;;;;;;;13.80;7.97;;;;;;;-0.81;100.00;98617.94;5064258;28;20211;-80
2023/12/07 06:28:42;;;;;;;11.67;7.37;;;;;;;-0.85;100.00;98611.94;5064549;28;20208;-80
2023/12/07 06:31:09;;;;;;;13.93;8.40;;;;;;;-0.88;100.00;98609.38;5063912;28;20269;-80
2023/12/07 06:33:36;;;;;;;15.20;8.00;;;;;;;-0.93;100.00;98611.19;5064057;28;20697;-80
2023/12/07 06:36:04;;;;;;;12.80;7.50;;;;;;;-0.93;100.00;98618.16;5064044;28;20337;-80
2023/12/07 06:38:30;;;;;;;13.27;8.37;;;;;;;-0.94;100.00;98617.28;5065040;28;20215;-80
2023/12/07 06:40:57;;;;;;;13.83;7.80;;;;;;;-0.96;100.00;98616.44;5064847;28;20637;-79
2023/12/07 06:43:23;;;;;;;11.77;7.80;;;;;;;-0.95;100.00;98614.69;5064250;28;20242;-80
2023/12/07 06:45:51;;;;;;;14.57;7.77;;;;;;;-0.95;100.00;98619.88;5064313;28;20215;-80
2023/12/07 06:48:18;;;;;;;13.57;8.37;;;;;;;-0.97;100.00;98619.94;5065192;28;20564;-80
2023/12/07 06:50:44;;;;;;;13.30;7.87;;;;;;;-1.04;100.00;98615.69;5066009;28;20214;-80
2023/12/07 06:53:11;;;;;;;17.53;8.90;;;;;;;-1.07;100.00;98620.06;5066097;28;20215;-80
2023/12/07 06:55:37;;;;;;;16.27;8.20;;;;;;;-1.10;100.00;98620.97;5064526;28;20215;-79
2023/12/07 06:58:04;;;;;;;14.63;8.93;;;;;;;-1.09;100.00;98624.44;5065597;28;20242;-80
2023/12/07 07:00:30;;;;;;;17.23;8.93;;;;;;;-1.12;100.00;98616.72;5064470;28;20221;-80
2023/12/07 07:02:58;;;;;;;18.63;9.93;;;;;;;-1.13;100.00;98615.00;5064267;28;20456;-80
2023/12/07 07:05:24;;;;;;;15.33;8.53;;;;;;;-1.16;100.00;98618.47;5061486;28;20577;-79
2023/12/07 07:07:52;;;;;;;16.50;9.00;;;;;;;-1.18;100.00;98622.00;5062309;28;20241;-79
2023/12/07 07:10:18;;;;;;;16.40;9.23;;;;;;;-1.17;100.00;98618.53;5061657;28;20632;-79
2023/12/07 07:12:45;;;;;;;17.10;9.07;;;;;;;-1.17;100.00;98623.72;5061005;28;20227;-79
2023/12/07 07:15:11;;;;;;;16.93;9.33;;;;;;;-1.20;100.00;98618.56;5056603;28;20230;-78
2023/12/07 07:17:38;;;;;;;15.10;8.53;;;;;;;-1.24;100.00;98616.91;5059110;28;20221;-79
2023/12/07 07:20:08;;;;;;;17.37;8.80;;;;;;;-1.27;100.00;98622.13;5058974;28;20221;-79
2023/12/07 07:22:34;;;;;;;16.03;10.03;;;;;;;-1.26;100.00;98613.47;5059056;28;20235;-80
2023/12/07 07:25:02;;;;;;;15.27;8.97;;;;;;;-1.27;100.00;98617.81;5058793;28;20212;-79
2023/12/07 07:27:29;;;;;;;15.63;9.17;;;;;;;-1.24;100.00;98614.31;5060508;28;20276;-79
2023/12/07 07:29:55;;;;;;;15.07;9.07;;;;;;;-1.22;100.00;98613.38;5058229;28;20211;-80
2023/12/07 07:32:22;;;;;;;18.47;10.03;;;;;;;-1.23;100.00;98621.22;5058887;28;20230;-79
2023/12/07 07:34:48;;;;;;;18.97;10.07;;;;;;;-1.22;100.00;98620.34;5059409;28;20312;-79
2023/12/07 07:37:16;;;;;;;18.50;10.23;;;;;;;-1.20;100.00;98619.44;5060029;28;20222;-79
2023/12/07 07:39:42;;;;;;;16.03;9.53;;;;;;;-1.17;100.00;98621.13;5059117;28;20245;-79
2023/12/07 07:42:09;;;;;;;19.50;10.17;;;;;;;-1.16;100.00;98615.88;5057479;28;20241;-80
2023/12/07 07:44:35;;;;;;;17.13;9.50;;;;;;;-1.09;100.00;98617.53;5058728;28;20231;-79
2023/12/07 07:47:02;;;;;;;18.00;10.07;;;;;;;-1.06;100.00;98627.00;5060008;28;20211;-79
2023/12/07 07:49:28;;;;;;;17.50;11.10;;;;;;;-1.04;100.00;98625.22;5059112;28;20218;-79
2023/12/07 07:51:55;;;;;;;18.43;9.53;;;;;;;-0.89;100.00;98635.34;5058727;28;20598;-78
2023/12/07 07:54:22;;;;;;;18.53;9.53;;;;;;;-0.86;100.00;98633.56;5057891;28;20580;-79
2023/12/07 07:56:49;;;;;;;17.13;9.63;;;;;;;-0.80;100.00;98630.03;5059113;28;20210;-78
2023/12/07 07:59:16;;;;;;;16.47;10.03;;;;;;;-0.76;100.00;98642.06;5054102;28;20744;-79
2023/12/07 08:01:42;;;;;;;18.87;9.93;;;;;;;-0.78;100.00;98643.81;5056253;28;20603;-79
2023/12/07 08:04:10;;;;;;;15.47;8.50;;;;;;;-0.79;100.00;98634.34;5053667;28;20231;-80
2023/12/07 08:06:36;;;;;;;17.70;8.93;;;;;;;-0.80;100.00;98636.06;5056054;28;20209;-80
2023/12/07 08:09:04;;;;;;;14.07;9.30;;;;;;;-0.75;100.00;98633.41;5057516;28;20225;-78
2023/12/07 08:11:32;;;;;;;16.70;9.43;;;;;;;-0.72;100.00;98630.75;5056174;28;20294;-81
2023/12/07 08:13:59;;;;;;;14.70;9.53;;;;;;;-0.70;100.00;98636.75;5053465;28;20207;-79
2023/12/07 08:16:27;;;;;;;16.07;9.53;;;;;;;-0.60;100.00;98633.13;5056990;28;20219;-79
2023/12/07 08:18:53;;;;;;;13.67;9.87;;;;;;;-0.50;100.00;98642.50;5058537;28;20215;-79
2023/12/07 08:21:21;;;;;;;17.67;10.13;;;;;;;-0.42;100.00;98643.19;5055725;28;20232;-79
2023/12/07 08:23:48;;;;;;;18.90;10.13;;;;;;;-0.39;100.00;98638.81;5055833;28;20264;-79
2023/12/07 08:26:15;;;;;;;13.10;8.60;;;;;;;-0.38;100.00;98634.47;5055979;28;20211;-79
2023/12/07 08:28:43;;;;;;;19.37;10.17;;;;;;;-0.34;100.00;98631.78;5053386;28;20564;-78
2023/12/07 08:31:10;;;;;;;18.83;9.70;;;;;;;-0.28;100.00;98633.41;5051288;28;20734;-78
2023/12/07 08:33:39;;;;;;;19.27;9.77;;;;;;;-0.25;100.00;98630.75;5051566;28;20346;-78
2023/12/07 08:36:06;;;;;;;15.97;9.27;;;;;;;-0.26;100.00;98629.06;5051381;28;20216;-77
2023/12/07 08:38:33;;;;;;;16.40;9.00;;;;;;;-0.26;100.00;98631.66;5051652;28;20338;-77
2023/12/07 08:40:59;;;;;;;22.17;13.52;;;;;;;-0.22;100.00;98637.59;5053266;28;20434;-78
2023/12/07 08:43:28;;;;;;;18.30;10.57;;;;;;;-0.19;100.00;98635.84;5057965;28;20236;-79
2023/12/07 08:45:56;;;;;;;19.53;10.37;;;;;;;-0.13;100.00;98641.75;5060460;28;20214;-79
2023/12/07 08:48:22;;;;;;;16.37;10.10;;;;;;;-0.12;100.00;98641.75;5064053;28;20208;-79
2023/12/07 08:50:49;;;;;;;16.77;10.27;;;;;;;-0.08;100.00;98646.00;5064693;28;20208;-80
2023/12/07 08:53:15;;;;;;;23.23;11.13;;;;;;;0.03;100.00;98633.66;5066306;28;20206;-79
2023/12/07 08:55:42;;;;;;;18.00;9.73;;;;;;;0.10;100.00;98640.44;5066369;28;20243;-78
2023/12/07 08:58:10;;;;;;;18.07;10.67;;;;;;;0.12;100.00;98633.47;5065123;28;20218;-79
2023/12/07 09:00:37;;;;;;;19.43;10.67;;;;;;;0.19;100.00;98624.66;5063258;28;20746;-78
2023/12/07 09:03:05;;;;;;;20.63;11.10;;;;;;;0.27;100.00;98627.09;5064411;28;20243;-79
2023/12/07 09:05:32;;;;;;;22.73;11.73;;;;;;;0.29;100.00;98621.00;5063241;28;20226;-79
2023/12/07 09:07:59;;;;;;;17.43;10.70;;;;;;;0.32;100.00;98620.91;5063299;28;20310;-79
2023/12/07 09:10:25;;;;;;;18.47;11.33;;;;;;;0.39;100.00;98616.44;5063610;28;20219;-79
2023/12/07 09:12:52;;;;;;;23.03;12.53;;;;;;;0.53;100.00;98614.41;5062551;28;20685;-79
2023/12/07 09:15:18;;;;;;;20.20;11.83;;;;;;;0.50;100.00;98615.31;5059376;28;20208;-79
2023/12/07 09:17:45;;;;;;;16.13;10.00;;;;;;;0.51;100.00;98617.03;5059273;28;20221;-82
2023/12/07 09:20:14;;;;;;;19.97;11.70;;;;;;;0.58;100.00;98610.81;5057649;28;20215;-82
2023/12/07 09:22:41;;;;;;;20.60;12.00;;;;;;;0.63;100.00;98606.34;5058017;28;20356;-82
2023/12/07 09:25:09;;;;;;;17.07;10.70;;;;;;;0.70;100.00;98596.69;5058158;28;20232;-77
2023/12/07 09:27:37;;;;;;;18.73;11.37;;;;;;;0.75;100.00;98594.81;5056324;28;20678;-78
2023/12/07 09:30:05;;;;;;;21.10;12.10;;;;;;;0.73;100.00;98596.59;5057385;28;20208;-80
2023/12/07 09:32:31;;;;;;;19.13;11.07;;;;;;;0.80;100.00;98604.22;5054900;28;20258;-79
2023/12/07 09:34:58;;;;;;;20.40;11.47;;;;;;;0.83;100.00;98613.72;5072409;28;20212;-79
2023/12/07 09:37:26;;;;;;;17.83;11.63;;;;;;;0.86;100.00;98611.88;5072310;28;20215;-79
2023/12/07 09:39:52;;;;;;;19.03;11.47;;;;;;;0.98;100.00;98598.59;5054044;28;20204;-78
2023/12/07 09:42:19;;;;;;;19.20;11.67;;;;;;;1.05;100.00;98602.75;5053887;28;20723;-78
2023/12/07 09:44:45;;;;;;;16.77;11.47;;;;;;;1.08;100.00;98588.81;5054426;28;20224;-78
2023/12/07 09:47:12;;;;;;;17.80;11.57;;;;;;;1.14;100.00;98589.53;5055270;28;20839;-79
2023/12/07 09:49:38;;;;;;;20.67;12.20;;;;;;;1.27;100.00;98590.06;5055786;28;20215;-78
2023/12/07 09:52:08;;;;;;;21.60;12.13;;;;;;;1.26;100.00;98589.22;5055306;28;20231;-79
2023/12/07 09:54:40;;;;;;;17.30;11.50;;;;;;;1.24;100.00;98590.16;5054350;28;20208;-78
2023/12/07 09:57:09;;;;;;;20.27;11.67;;;;;;;1.24;100.00;98590.97;5061719;28;20222;-79
2023/12/07 09:59:35;;;;;;;18.87;11.93;;;;;;;1.32;100.00;98589.06;5075088;28;20230;-79
2023/12/07 10:02:02;;;;;;;16.47;10.30;;;;;;;1.34;100.00;98589.00;5074533;28;20235;-79
2023/12/07 10:04:29;;;;;;;16.30;9.20;;;;;;;1.41;100.00;98578.41;5077689;28;20379;-78
2023/12/07 10:06:57;;;;;;;19.07;10.47;;;;;;;1.47;100.00;98572.19;5082265;28;20207;-80
2023/12/07 10:09:24;;;;;;;17.90;9.70;;;;;;;1.58;100.00;98567.53;5079204;28;20215;-81
2023/12/07 10:12:02;;;;;;;15.10;9.13;;;;;;;1.67;100.00;98557.72;5075426;28;20230;-78
2023/12/07 10:14:29;;;;;;;15.87;9.67;;;;;;;1.83;100.00;98564.22;5075871;28;20203;-77
2023/12/07 10:16:56;;;;;;;13.80;8.43;;;;;;;1.96;100.00;98562.97;5073917;28;20701;-78
2023/12/07 10:19:24;;;;;;;13.30;8.20;;;;;;;1.85;100.00;98559.81;5072697;28;20243;-77
2023/12/07 10:21:51;;;;;;;15.93;7.87;;;;;;;1.85;100.00;98552.00;5073197;28;20596;-78
2023/12/07 10:24:18;;;;;;;12.07;7.60;;;;;;;1.90;100.00;98557.09;5072907;28;20258;-78
2023/12/07 10:26:45;;;;;;;11.93;8.00;;;;;;;1.80;100.00;98551.28;5073757;28;20215;-80
2023/12/07 10:29:13;;;;;;;15.60;7.47;;;;;;;1.79;100.00;98552.16;5074897;28;20554;-78
2023/12/07 10:31:40;;;;;;;13.23;8.30;;;;;;;1.82;100.00;98543.41;5073793;28;20277;-78
2023/12/07 10:34:08;;;;;;;17.70;10.77;;;;;;;1.92;100.00;98540.53;5074703;28;20762;-80
2023/12/07 10:36:35;;;;;;;12.23;7.97;;;;;;;1.96;100.00;98536.06;5074384;28;20203;-77
2023/12/07 10:39:06;;;;;;;10.83;7.90;;;;;;;2.12;100.00;98530.38;5073522;28;20211;-79
2023/12/07 10:41:34;;;;;;;13.57;8.17;;;;;;;2.28;100.00;98523.75;5077703;28;20227;-79
2023/12/07 10:44:04;;;;;;;13.90;8.33;;;;;;;2.36;100.00;98527.03;5077014;28;20223;-79
2023/12/07 10:46:34;;;;;;;11.07;7.90;;;;;;;2.33;100.00;98526.25;5073847;28;20207;-78
2023/12/07 10:49:02;;;;;;;14.43;7.90;;;;;;;2.27;100.00;98527.28;5072941;28;20207;-79
2023/12/07 10:51:35;;;;;;;11.80;8.03;;;;;;;2.34;100.00;98517.53;5073720;28;20231;-77
2023/12/07 10:54:04;;;;;;;9.77;7.00;;;;;;;2.30;100.00;98526.34;5073252;28;20203;-78
2023/12/07 10:56:39;;;;;;;10.67;7.30;;;;;;;2.27;100.00;98521.22;5073147;28;20207;-77
2023/12/07 10:59:07;;;;;;;11.30;7.50;;;;;;;2.35;100.00;98524.44;5076978;28;20639;-79
2023/12/07 11:01:36;;;;;;;10.23;7.30;;;;;;;2.30;100.00;98524.59;5077317;28;20643;-78
2023/12/07 11:04:03;;;;;;;9.37;7.03;;;;;;;2.29;100.00;98515.06;5077181;28;20242;-78
2023/12/07 11:06:29;;;;;;;11.73;6.60;;;;;;;2.48;100.00;98505.78;5077182;28;20207;-78
2023/12/07 11:09:01;;;;;;;10.77;7.93;;;;;;;2.77;100.00;98497.00;5073367;28;20436;-79
2023/12/07 11:11:32;;;;;;;8.70;6.23;;;;;;;2.86;100.00;98487.13;5075778;28;20488;-79
2023/12/07 11:14:01;;;;;;;10.85;7.00;;;;;;;2.81;100.00;98483.81;5078765;28;20427;-79
2023/12/07 11:16:32;;;;;;;8.50;6.20;;;;;;;2.71;100.00;98473.72;5077096;28;20207;-79
2023/12/07 11:19:00;;;;;;;10.00;6.73;;;;;;;2.85;100.00;98471.50;5079681;28;20207;-78
2023/12/07 11:21:27;;;;;;;11.13;6.50;;;;;;;2.85;100.00;98458.44;5080259;28;20236;-79
2023/12/07 11:23:53;;;;;;;9.77;6.23;;;;;;;2.92;100.00;98468.66;5078140;28;20635;-79